Terminal Aerodrome Forecast
Issued by NWS

Home | Current Version | Previous Version | Text Only | Print | Product List | Glossary On
Versions: 1 2 3 4 5 6 7 8 9 10 11 12 13 14 15 16 17 18 19 20 21 22
000
FTUS46 KLOX 031734
TAFLGB
TAF
KLGB 031734Z 0318/0418 16005KT P6SM SCT015 BKN250
     FM032200 21008KT P6SM BKN250
     FM040000 29008KT P6SM BKN250
     FM040400 VRB03KT P6SM SCT250
     FM041100 VRB03KT P6SM BKN012
     FM041600 VRB03KT P6SM SCT025 SCT250=

USA.gov is the U.S. government's official web portal to all federal, state and local government web resources and services.